createdAt,value
2023-01-20T12:01:58.003Z,159.50
2023-01-20T12:03:48.246Z,157.75
2023-01-20T12:05:23.488Z,137.00
2023-01-20T12:07:12.186Z,132.25
2023-01-20T12:08:50.737Z,121.00
2023-01-20T12:10:33.053Z,129.50
2023-01-20T12:12:05.905Z,125.25
2023-01-20T12:14:06.363Z,138.75
2023-01-20T12:15:41.512Z,120.80
2023-01-20T12:17:30.614Z,139.00
2023-01-20T12:19:04.997Z,132.25
2023-01-20T12:20:54.616Z,172.25
2023-01-20T12:23:04.932Z,178.50
2023-01-20T12:25:07.426Z,224.75
2023-01-20T12:26:39.607Z,210.00
2023-01-20T12:28:20.250Z,200.75
2023-01-20T12:29:52.557Z,214.75
2023-01-20T12:31:24.643Z,207.75
2023-01-20T12:32:56.634Z,168.00
2023-01-20T12:34:28.889Z,194.00
2023-01-20T12:36:40.922Z,172.25
2023-01-20T12:38:18.480Z,157.50
2023-01-20T12:40:05.832Z,139.75
2023-01-20T12:41:56.927Z,139.25
2023-01-20T12:43:43.881Z,122.00
2023-01-20T12:45:28.705Z,138.40
2023-01-20T12:47:48.560Z,132.75
2023-01-20T12:49:27.680Z,143.60
2023-01-20T12:51:14.539Z,119.80
2023-01-20T12:52:58.680Z,117.80
2023-01-20T12:54:48.709Z,115.80
2023-01-20T12:56:45.031Z,113.20
2023-01-20T12:58:21.641Z,129.75
2023-01-20T13:00:24.053Z,120.25
2023-01-20T13:02:02.172Z,114.00
2023-01-20T13:04:00.535Z,106.25
2023-01-20T13:05:46.071Z,104.25
2023-01-20T13:07:27.539Z,92.75
2023-01-20T13:09:27.298Z,99.00
2023-01-20T13:11:08.115Z,100.00
2023-01-20T13:12:55.073Z,100.00
2023-01-20T13:14:41.529Z,85.00
2023-01-20T13:16:33.099Z,89.50
2023-01-20T13:18:17.153Z,88.75
2023-01-20T13:19:49.643Z,87.75
2023-01-20T13:21:21.513Z,86.25
2023-01-20T13:22:53.682Z,78.00
2023-01-20T13:24:29.479Z,71.25
2023-01-20T13:26:01.722Z,68.60
2023-01-20T13:27:36.229Z,64.40
2023-01-20T13:29:39.475Z,69.40
2023-01-20T13:31:36.613Z,70.20
2023-01-20T13:33:18.641Z,66.20
2023-01-20T13:34:50.664Z,68.80
2023-01-20T13:36:23.828Z,69.40
2023-01-20T13:37:57.042Z,64.80
2023-01-20T13:39:40.735Z,64.00
2023-01-20T13:41:34.161Z,65.80
2023-01-20T13:43:26.977Z,66.00
2023-01-20T13:45:14.434Z,56.80
2023-01-20T13:46:47.401Z,56.80
2023-01-20T13:48:23.526Z,64.20
2023-01-20T13:49:55.478Z,65.60
2023-01-20T13:51:27.365Z,61.40
2023-01-20T13:53:11.199Z,60.60
2023-01-20T13:54:45.509Z,58.00
2023-01-20T13:56:35.487Z,61.60
2023-01-20T13:58:41.291Z,62.80
2023-01-20T14:00:14.140Z,63.20
2023-01-20T14:01:46.182Z,58.20
2023-01-20T14:03:28.109Z,59.20
2023-01-20T14:05:00.398Z,59.60
2023-01-20T14:06:36.303Z,51.80
2023-01-20T14:08:14.330Z,54.20
2023-01-20T14:10:00.389Z,57.60
2023-01-20T14:11:32.317Z,61.80
2023-01-20T14:13:12.083Z,58.60
2023-01-20T14:14:44.079Z,63.60
2023-01-20T14:16:39.573Z,56.80
2023-01-20T14:18:13.720Z,52.60
2023-01-20T14:19:49.248Z,65.40
2023-01-20T14:21:23.119Z,54.00
2023-01-20T14:22:55.031Z,58.80
2023-01-20T14:24:31.193Z,51.80
2023-01-20T14:26:08.309Z,59.20
2023-01-20T14:27:42.159Z,49.60
2023-01-20T14:29:17.925Z,64.60
2023-01-20T14:30:50.964Z,54.40
2023-01-20T14:32:32.923Z,51.00
2023-01-20T14:34:23.660Z,58.60
2023-01-20T14:35:55.658Z,56.40
2023-01-20T14:37:40.670Z,63.20
2023-01-20T14:39:27.250Z,52.60
2023-01-20T14:40:59.401Z,45.60
2023-01-20T14:42:31.563Z,52.20
2023-01-20T14:44:03.889Z,57.20
2023-01-20T14:45:35.908Z,59.80
2023-01-20T14:47:09.312Z,57.60
2023-01-20T14:48:42.073Z,55.00
2023-01-20T14:50:17.615Z,55.20
2023-01-20T14:51:50.096Z,53.40
2023-01-20T14:53:22.124Z,50.80
2023-01-20T14:54:56.472Z,50.60
2023-01-20T14:56:28.434Z,53.60
2023-01-20T14:58:00.894Z,49.60
2023-01-20T14:59:33.208Z,57.20
2023-01-20T15:01:06.106Z,57.20
2023-01-20T15:02:38.381Z,50.40
2023-01-20T15:04:13.061Z,53.40
2023-01-20T15:06:21.173Z,50.60
2023-01-20T15:08:15.453Z,50.60
2023-01-20T15:10:16.892Z,54.00
2023-01-20T15:11:49.016Z,55.40
2023-01-20T15:13:25.599Z,47.80
2023-01-20T15:15:13.228Z,50.60
2023-01-20T15:16:49.543Z,48.00
2023-01-20T15:18:22.587Z,44.40
2023-01-20T15:19:55.881Z,53.60
2023-01-20T15:21:27.998Z,49.50
2023-01-20T15:23:00.321Z,48.60
2023-01-20T15:24:34.863Z,39.00
2023-01-20T15:26:08.853Z,52.80
2023-01-20T15:27:40.906Z,54.00
2023-01-20T15:29:46.096Z,55.40
2023-01-20T15:31:18.634Z,45.80
2023-01-20T15:32:51.145Z,51.20
2023-01-20T15:34:23.460Z,48.80
2023-01-20T15:35:59.508Z,48.40
2023-01-20T15:37:31.456Z,48.40
2023-01-20T15:39:03.318Z,47.40
2023-01-20T15:40:35.805Z,54.80
2023-01-20T15:42:11.127Z,55.60
2023-01-20T15:43:45.625Z,45.60
2023-01-20T15:45:17.943Z,48.20
2023-01-20T15:46:49.890Z,47.20
2023-01-20T15:48:22.536Z,44.80
2023-01-20T15:49:55.056Z,51.20
2023-01-20T15:51:27.096Z,45.00
2023-01-20T15:52:59.321Z,51.80
2023-01-20T15:54:31.406Z,50.40
2023-01-20T15:56:03.295Z,64.20
2023-01-20T15:57:35.222Z,65.60
2023-01-20T15:59:14.176Z,58.20
2023-01-20T16:00:46.133Z,62.00
2023-01-20T16:02:19.338Z,58.80
2023-01-20T16:03:57.299Z,58.20
2023-01-20T16:05:29.409Z,56.80
2023-01-20T16:07:01.422Z,49.80
2023-01-20T16:08:36.112Z,52.80
2023-01-20T16:10:14.045Z,55.60
2023-01-20T16:11:47.709Z,59.20
2023-01-20T16:13:19.592Z,65.40
2023-01-20T16:14:51.523Z,79.00
2023-01-20T16:16:24.012Z,82.25
2023-01-20T16:17:56.157Z,84.75
2023-01-20T16:19:28.485Z,90.00
2023-01-20T16:21:00.897Z,105.50
2023-01-20T16:22:33.230Z,92.00
2023-01-20T16:24:05.903Z,110.75
2023-01-20T16:25:38.204Z,120.80
2023-01-20T16:27:21.249Z,128.40
2023-01-20T16:28:54.736Z,108.20
2023-01-20T16:30:26.997Z,125.00
2023-01-20T16:31:59.180Z,119.00
2023-01-20T16:33:31.381Z,121.75
2023-01-20T16:35:03.390Z,130.00
2023-01-20T16:36:35.509Z,127.75
2023-01-20T16:38:07.769Z,120.75
2023-01-20T16:39:40.101Z,126.50
2023-01-20T16:41:20.405Z,124.00
2023-01-20T16:42:54.611Z,122.00
2023-01-20T16:44:26.598Z,120.75
2023-01-20T16:45:58.629Z,127.00
2023-01-20T16:47:30.543Z,121.20
2023-01-20T16:49:03.947Z,112.60
2023-01-20T16:50:37.171Z,117.80
2023-01-20T16:52:10.479Z,106.40
2023-01-20T16:53:42.563Z,117.20
2023-01-20T16:55:14.954Z,119.40
2023-01-20T16:56:46.879Z,114.80
2023-01-20T16:58:18.881Z,108.60
2023-01-20T16:59:50.736Z,131.25
2023-01-20T17:01:24.885Z,136.75
2023-01-20T17:02:56.854Z,120.25
2023-01-20T17:04:29.762Z,138.50
2023-01-20T17:06:11.817Z,125.00
2023-01-20T17:07:43.704Z,135.50
2023-01-20T17:09:15.589Z,138.25
2023-01-20T17:10:47.769Z,122.20
2023-01-20T17:12:19.714Z,116.80
2023-01-20T17:13:51.851Z,125.50
2023-01-20T17:15:24.112Z,131.60
2023-01-20T17:16:58.620Z,118.60
2023-01-20T17:18:30.508Z,107.80
2023-01-20T17:20:02.509Z,120.20
2023-01-20T17:21:34.896Z,111.80
2023-01-20T17:23:06.895Z,108.50
2023-01-20T17:24:39.544Z,99.40
2023-01-20T17:26:11.454Z,103.75
2023-01-20T17:27:43.705Z,107.00
2023-01-20T17:29:19.064Z,100.00
2023-01-20T17:30:50.984Z,109.75
2023-01-20T17:32:23.235Z,95.50
2023-01-20T17:33:55.262Z,88.50
2023-01-20T17:35:28.050Z,96.75
2023-01-20T17:37:00.210Z,99.25
2023-01-20T17:38:34.939Z,103.00
2023-01-20T17:40:07.306Z,115.80
2023-01-20T17:41:39.219Z,107.00
2023-01-20T17:43:11.089Z,97.50
2023-01-20T17:44:43.073Z,103.25
2023-01-20T17:46:19.516Z,85.00
2023-01-20T17:47:52.364Z,99.25
2023-01-20T17:49:24.350Z,84.00
2023-01-20T17:50:59.436Z,96.25
2023-01-20T17:52:31.472Z,89.00
2023-01-20T17:54:04.195Z,102.25
2023-01-20T17:55:36.253Z,92.75
2023-01-20T17:57:08.214Z,94.00
2023-01-20T17:58:40.248Z,94.00
2023-01-20T18:00:12.739Z,89.00
2023-01-20T18:01:44.853Z,97.25
2023-01-20T18:03:16.734Z,87.50
2023-01-20T18:04:48.642Z,109.20
2023-01-20T18:06:21.664Z,115.25
2023-01-20T18:07:53.682Z,138.25
2023-01-20T18:09:25.671Z,168.50
2023-01-20T18:11:03.215Z,130.75
2023-01-20T18:12:35.440Z,113.80
2023-01-20T18:14:07.728Z,105.60
2023-01-20T18:15:42.655Z,110.60
2023-01-20T18:17:14.798Z,123.75
2023-01-20T18:18:47.063Z,129.25
2023-01-20T18:20:19.384Z,135.25
2023-01-20T18:21:51.231Z,151.75
2023-01-20T18:23:23.146Z,167.50
2023-01-20T18:24:55.409Z,163.00
2023-01-20T18:26:31.715Z,168.00
2023-01-20T18:28:03.643Z,186.25
2023-01-20T18:29:36.341Z,203.25
2023-01-20T18:31:18.592Z,180.75
2023-01-20T18:32:50.623Z,190.75
2023-01-20T18:34:22.576Z,200.25
2023-01-20T18:35:55.778Z,209.25
2023-01-20T18:37:28.157Z,198.00
2023-01-20T18:39:00.905Z,194.75
2023-01-20T18:40:33.298Z,188.75
2023-01-20T18:42:05.625Z,186.25
2023-01-20T18:43:38.081Z,192.75
2023-01-20T18:45:10.346Z,206.75
2023-01-20T18:46:42.500Z,194.50
2023-01-20T18:48:14.597Z,206.50
2023-01-20T18:49:46.570Z,220.33
2023-01-20T18:51:20.784Z,227.00
2023-01-20T18:52:55.699Z,226.00
2023-01-20T18:54:30.350Z,203.67
2023-01-20T18:56:06.519Z,225.33
2023-01-20T18:57:38.409Z,208.67
2023-01-20T18:59:10.641Z,213.00
2023-01-20T19:00:42.733Z,211.67
2023-01-20T19:02:14.768Z,208.67
2023-01-20T19:03:47.300Z,185.67
2023-01-20T19:05:19.546Z,217.00
2023-01-20T19:06:51.491Z,207.67
2023-01-20T19:08:23.455Z,202.33
2023-01-20T19:09:55.716Z,201.00
2023-01-20T19:11:29.777Z,209.50
2023-01-20T19:13:02.381Z,211.33
2023-01-20T19:14:34.819Z,212.33
2023-01-20T19:16:10.434Z,194.33
2023-01-20T19:17:42.460Z,204.33
2023-01-20T19:19:14.738Z,207.00
2023-01-20T19:20:46.980Z,219.33
2023-01-20T19:22:18.892Z,228.67
2023-01-20T19:23:59.290Z,189.33
2023-01-20T19:25:32.244Z,196.67
2023-01-20T19:27:04.082Z,224.33
2023-01-20T19:28:36.172Z,205.67
2023-01-20T19:30:08.892Z,222.33
2023-01-20T19:31:40.889Z,204.00
2023-01-20T19:33:12.914Z,209.50
2023-01-20T19:34:45.880Z,215.00
2023-01-20T19:36:18.423Z,201.25
2023-01-20T19:37:50.407Z,183.75
2023-01-20T19:39:22.333Z,200.00
2023-01-20T19:40:54.166Z,207.75
2023-01-20T19:42:26.099Z,195.00
2023-01-20T19:43:58.595Z,204.75
2023-01-20T19:45:44.868Z,194.25
2023-01-20T19:47:17.271Z,162.00
2023-01-20T19:48:49.124Z,194.50
2023-01-20T19:50:21.298Z,170.00
2023-01-20T19:51:53.300Z,180.25
2023-01-20T19:53:25.366Z,154.25
2023-01-20T19:54:57.174Z,160.25
2023-01-20T19:56:30.560Z,153.50
2023-01-20T19:58:02.504Z,148.25
2023-01-20T19:59:34.427Z,154.00
2023-01-20T20:01:29.836Z,155.25
2023-01-20T20:03:04.725Z,160.25
2023-01-20T20:04:36.648Z,163.50
2023-01-20T20:06:08.989Z,158.25
2023-01-20T20:07:40.848Z,165.75
2023-01-20T20:09:16.728Z,158.25
2023-01-20T20:10:48.656Z,158.50
2023-01-20T20:12:20.645Z,161.50
2023-01-20T20:13:59.231Z,153.75
2023-01-20T20:15:31.307Z,158.75
2023-01-20T20:17:03.471Z,147.00
2023-01-20T20:18:35.447Z,164.25
2023-01-20T20:20:07.651Z,156.25
2023-01-20T20:21:39.607Z,295.50
2023-01-20T20:23:11.602Z,394.25
2023-01-20T20:24:43.508Z,290.25
2023-01-20T20:26:15.381Z,236.33
2023-01-20T20:27:47.699Z,228.33
2023-01-20T20:29:19.817Z,202.00
2023-01-20T20:30:52.319Z,196.50
2023-01-20T20:32:26.638Z,194.75
2023-01-20T20:33:59.618Z,188.50
2023-01-20T20:35:31.683Z,194.25
2023-01-20T20:37:03.620Z,192.50
2023-01-20T20:38:36.848Z,177.00
2023-01-20T20:40:09.649Z,177.00
2023-01-20T20:41:42.234Z,160.00
2023-01-20T20:43:14.168Z,166.25
2023-01-20T20:44:46.697Z,167.00
2023-01-20T20:46:19.310Z,172.00
2023-01-20T20:47:51.133Z,167.00
2023-01-20T20:49:23.456Z,149.25
2023-01-20T20:50:55.698Z,152.25
2023-01-20T20:52:27.620Z,165.25
2023-01-20T20:54:01.213Z,143.25
2023-01-20T20:55:33.157Z,162.25
2023-01-20T20:57:05.015Z,170.75
2023-01-20T20:58:43.326Z,154.00
2023-01-20T21:00:23.668Z,162.00
2023-01-20T21:01:55.636Z,165.75
2023-01-20T21:03:28.053Z,146.50
2023-01-20T21:04:59.930Z,162.00
2023-01-20T21:06:32.006Z,168.25
2023-01-20T21:08:06.098Z,159.25
2023-01-20T21:09:38.029Z,151.75
2023-01-20T21:11:11.294Z,171.00
2023-01-20T21:12:44.078Z,149.00
2023-01-20T21:14:15.885Z,160.00
2023-01-20T21:16:00.444Z,162.50
2023-01-20T21:17:32.427Z,138.50
2023-01-20T21:19:05.321Z,161.75
2023-01-20T21:20:37.164Z,172.75
2023-01-20T21:22:09.116Z,167.25
2023-01-20T21:23:41.847Z,174.50
2023-01-20T21:25:13.852Z,181.00
2023-01-20T21:26:45.868Z,168.75
2023-01-20T21:28:17.836Z,160.00
2023-01-20T21:29:49.719Z,161.00
2023-01-20T21:31:23.095Z,160.75
2023-01-20T21:32:55.062Z,173.50
2023-01-20T21:34:27.041Z,162.50
2023-01-20T21:36:01.294Z,180.00
2023-01-20T21:37:33.372Z,170.25
2023-01-20T21:39:05.642Z,166.75
2023-01-20T21:40:37.617Z,182.25
2023-01-20T21:42:09.432Z,168.25
2023-01-20T21:44:01.615Z,156.50
2023-01-20T21:45:33.568Z,156.00
2023-01-20T21:47:07.793Z,169.00
2023-01-20T21:48:58.673Z,147.50
2023-01-20T21:50:49.169Z,146.50
2023-01-20T21:52:41.120Z,158.50
2023-01-20T21:54:13.040Z,199.00
2023-01-20T21:55:44.906Z,183.25
2023-01-20T21:57:16.807Z,146.50
2023-01-20T21:58:48.646Z,136.50
2023-01-20T22:00:20.979Z,144.00
2023-01-20T22:01:53.004Z,142.50
2023-01-20T22:03:24.907Z,142.50
2023-01-20T22:04:56.888Z,124.50
2023-01-20T22:06:28.952Z,134.50
2023-01-20T22:08:01.455Z,137.50
2023-01-20T22:09:34.115Z,116.75
2023-01-20T22:11:06.188Z,122.00
2023-01-20T22:12:38.253Z,126.25
2023-01-20T22:14:10.254Z,120.50
2023-01-20T22:15:42.165Z,128.50
2023-01-20T22:17:14.168Z,148.50
2023-01-20T22:18:46.165Z,142.50
2023-01-20T22:20:18.404Z,141.00
2023-01-20T22:21:50.588Z,135.75
2023-01-20T22:23:22.377Z,145.25
2023-01-20T22:24:54.361Z,147.50
2023-01-20T22:26:26.241Z,141.50
2023-01-20T22:27:58.103Z,139.25
2023-01-20T22:29:29.982Z,139.75
2023-01-20T22:31:09.213Z,140.00
2023-01-20T22:32:41.157Z,167.00
2023-01-20T22:34:13.142Z,224.33
2023-01-20T22:35:44.973Z,202.00
2023-01-20T22:37:16.817Z,200.50
2023-01-20T22:38:49.143Z,184.25
2023-01-20T22:40:21.016Z,179.25
2023-01-20T22:41:52.908Z,189.25
2023-01-20T22:43:24.884Z,175.00
2023-01-20T22:44:56.852Z,153.75
2023-01-20T22:46:29.708Z,171.25
2023-01-20T22:48:01.519Z,153.50
2023-01-20T22:49:33.464Z,171.25
2023-01-20T22:51:06.439Z,170.25
2023-01-20T22:52:38.365Z,147.00
2023-01-20T22:54:10.886Z,163.00
2023-01-20T22:55:52.342Z,149.25
2023-01-20T22:57:31.915Z,148.00
2023-01-20T22:59:03.784Z,147.50
2023-01-20T23:00:35.696Z,135.75
2023-01-20T23:02:07.573Z,144.25
2023-01-20T23:03:39.648Z,137.75
2023-01-20T23:05:12.117Z,149.00
2023-01-20T23:06:44.043Z,141.25
2023-01-20T23:08:16.152Z,150.75
2023-01-20T23:09:48.159Z,155.50
2023-01-20T23:11:21.148Z,131.50
2023-01-20T23:12:53.070Z,147.00
2023-01-20T23:14:56.920Z,148.25
2023-01-20T23:16:28.754Z,152.50
2023-01-20T23:18:00.647Z,138.75
2023-01-20T23:19:32.489Z,134.25
2023-01-20T23:21:06.097Z,148.75
2023-01-20T23:22:38.083Z,143.25
2023-01-20T23:24:10.609Z,157.50
2023-01-20T23:25:42.921Z,135.50
2023-01-20T23:27:14.974Z,139.00
2023-01-20T23:28:47.063Z,142.50
2023-01-20T23:30:18.927Z,147.50
2023-01-20T23:31:50.845Z,145.50
2023-01-20T23:33:22.815Z,140.75
2023-01-20T23:34:54.649Z,138.50
